Flight Track Log - Related Links

Times and Time Zones

All times are in EDT time to prevent confusion due to time zone crossing. See the ASA485 flight status page for this flight to view local times or setup timezone preferences in your user account.

Time Position Orientation Groundspeed Altitude Reporting Facility
EDT Latitude Longitude Course Direction KTS MPH feet Rate Location/Type
Fri 11:56:23 PM 32.7439 -117.2178 302° West 173 199 1,200  Level Los Angeles Center
Fri 11:57:25 PM 32.7764 -117.2792 302° West 221 254 3,100 2,146 Climbing Los Angeles Center
Fri 11:58:26 PM 32.8214 -117.3472 308° West 255 293 5,600 2,439 Climbing Los Angeles Center
Fri 11:59:28 PM 32.8744 -117.4183 312° West 280 322 8,100 2,371 Climbing Los Angeles Center
Sat 12:00:30 AM 32.9275 -117.4911 311° West 298 343 10,500 1,756 Climbing Los Angeles Center
Sat 12:01:31 AM 33.0058 -117.5956 312° West 351 404 11,700 1,707 Climbing Los Angeles Center
Sat 12:02:33 AM 33.0844 -117.6861 316° Northwest 388 447 14,000 2,371 Climbing Los Angeles Center
Sat 12:03:35 AM 33.1806 -117.7536 330° Northwest 398 458 16,600 2,390 Climbing Los Angeles Center
Sat 12:04:36 AM 33.2883 -117.8022 339° North 407 468 18,900 2,049 Climbing Los Angeles Center
Sat 12:05:38 AM 33.3975 -117.8519 339° North 415 478 20,800 1,854 Climbing Los Angeles Center
Sat 12:06:39 AM 33.5100 -117.9044 339° North 431 496 22,700 1,951 Climbing Los Angeles Center
Sat 12:07:41 AM 33.6486 -117.9678 339° North 445 512 24,800 1,790 Climbing Los Angeles Center
Sat 12:08:43 AM 33.7689 -118.0108 343° North 454 522 26,400 1,512 Climbing Los Angeles Center
Sat 12:09:44 AM 33.8933 -118.0506 345° North 464 534 27,900 1,463 Climbing Los Angeles Center
Sat 12:10:46 AM 34.0197 -118.0911 345° North 471 542 29,400 1,024 Climbing Los Angeles Center
Sat 12:11:47 AM 34.1442 -118.1319 345° North 471 542 30,000 293 Climbing Los Angeles Center
Sat 12:12:49 AM 34.2694 -118.1736 345° North 470 541 30,000  Level Los Angeles Center
Sat 12:13:51 AM 34.4197 -118.2222 345° North 469 540 30,000 439 Level Los Angeles Center
Sat 12:14:52 AM 34.5447 -118.2636 345° North 469 540 30,900 1,171 Climbing Los Angeles Center
Sat 12:15:54 AM 34.6603 -118.3000 345° North 469 540 32,400 1,561 Climbing Los Angeles Center
Sat 12:16:55 AM 34.7836 -118.3447 343° North 467 537 34,100 1,610 Climbing Los Angeles Center
Sat 12:17:57 AM 34.9056 -118.3836 345° North 458 527 35,700 1,452 Climbing Los Angeles Center
Sat 12:18:59 AM 35.0492 -118.4311 345° North 448 516 37,100 1,024 Climbing Los Angeles Center
Sat 12:20:00 AM 35.1686 -118.4697 345° North 445 512 37,800 439 Climbing Los Angeles Center
Sat 12:21:02 AM 35.2903 -118.5086 345° North 458 527 38,000 98 Climbing Los Angeles Center
Sat 12:22:03 AM 35.4133 -118.5492 345° North 461 531 38,000  Level Los Angeles Center
Sat 12:23:05 AM 35.5319 -118.5908 344° North 449 517 38,000  Level Los Angeles Center
Sat 12:24:06 AM 35.6519 -118.6306 345° North 449 517 38,000  Level Los Angeles Center
Sat 12:25:08 AM 35.7997 -118.6794 345° North 456 525 38,000  Level Los Angeles Center
Sat 12:26:09 AM 35.9192 -118.7206 344° North 454 522 38,000  Level Los Angeles Center
Sat 12:27:11 AM 36.0375 -118.7608 345° North 448 516 38,000  Level Los Angeles Center
Sat 12:28:13 AM 36.1553 -118.8014 344° North 447 514 38,000  Level Los Angeles Center
Sat 12:29:14 AM 36.2825 -118.8467 344° North 441 507 38,000  Level Los Angeles Center
Sat 12:30:16 AM 36.3906 -118.8839 345° North 440 506 38,000  Level Los Angeles Center
Sat 12:31:17 AM 36.5078 -118.9239 345° North 442 509 38,000  Level Los Angeles Center
Sat 12:32:19 AM 36.6500 -118.9719 345° North 443 510 38,000  Level Los Angeles Center
Sat 12:33:20 AM 36.7683 -119.0133 344° North 445 512 38,000  Level Los Angeles Center
Sat 12:34:22 AM 36.8881 -119.0558 344° North 445 512 38,000  Level Los Angeles Center
Sat 12:35:23 AM 37.0081 -119.0992 344° North 447 514 38,000  Level Los Angeles Center
Sat 12:36:25 AM 37.1208 -119.1361 345° North 449 517 38,000  Level Los Angeles Center
Sat 12:37:26 AM 37.2672 -119.1861 345° North 451 519 38,000  Level Los Angeles Center
Sat 12:39:05 AM 37.4164 -119.2392 344° North 452 520 38,000  Level Oakland Center
Sat 12:40:07 AM 37.5861 -119.2989 344° North 452 520 38,000  Level Oakland Center
Sat 12:41:08 AM 37.7008 -119.3386 345° North 459 528 38,000  Level Oakland Center
Sat 12:42:09 AM 37.8233 -119.3814 345° North 459 528 38,000  Level Oakland Center
Sat 12:43:10 AM 37.9450 -119.4261 344° North 459 528 38,000  Level Oakland Center
Sat 12:44:11 AM 38.0678 -119.4708 344° North 459 528 38,000  Level Oakland Center
Sat 12:45:13 AM 38.2144 -119.5239 344° North 459 528 38,000  Level Oakland Center
Sat 12:46:14 AM 38.3386 -119.5678 345° North 459 528 38,000  Level Oakland Center
Sat 12:47:15 AM 38.4511 -119.6092 344° North 459 528 38,000  Level Oakland Center
Sat 12:48:16 AM 38.5731 -119.6536 344° North 456 525 38,000  Level Oakland Center
Sat 12:49:17 AM 38.6942 -119.6986 344° North 453 521 38,000  Level Oakland Center
Sat 12:50:18 AM 38.8175 -119.7436 344° North 454 522 38,000  Level Oakland Center
Sat 12:51:19 AM 38.9631 -119.7964 344° North 460 529 38,000  Level Oakland Center
Sat 12:52:21 AM 39.0669 -119.8350 344° North 461 531 38,000  Level Oakland Center
Sat 12:53:22 AM 39.2164 -119.8906 344° North 462 532 38,000  Level Oakland Center
Sat 12:54:23 AM 39.3397 -119.9372 344° North 462 532 38,000  Level Oakland Center
Sat 12:55:24 AM 39.4656 -119.9836 344° North 464 534 38,000  Level Oakland Center
Sat 12:56:25 AM 39.5881 -120.0303 344° North 464 534 38,000  Level Oakland Center
Sat 12:57:26 AM 39.7136 -120.0778 344° North 464 534 38,000  Level Oakland Center
Sat 12:58:27 AM 39.8400 -120.1239 344° North 464 534 38,000  Level Oakland Center
Sat 12:59:28 AM 39.9639 -120.1708 344° North 466 536 38,000  Level Oakland Center
Sat 01:00:29 AM 40.0853 -120.2197 343° North 466 536 38,000  Level Oakland Center
Sat 01:01:30 AM 40.2114 -120.2664 344° North 466 536 38,000  Level Oakland Center
Sat 01:02:31 AM 40.3386 -120.3119 345° North 469 540 38,000  Level Oakland Center
Sat 01:03:32 AM 40.4633 -120.3589 344° North 469 540 38,000  Level Oakland Center
Sat 01:04:33 AM 40.5972 -120.4108 344° North 465 535 38,000  Level Oakland Center
Sat 01:05:34 AM 40.7203 -120.4597 343° North 464 534 38,000  Level Oakland Center
Sat 01:06:35 AM 40.8442 -120.5089 343° North 464 534 38,000  Level Oakland Center
Sat 01:07:40 AM 40.9694 -120.5581 343° North 464 534 38,000  Level Seattle Center
Sat 01:08:41 AM 41.0947 -120.6075 343° North 470 541 38,000  Level Seattle Center
Sat 01:09:42 AM 41.2203 -120.6569 344° North 471 542 38,000  Level Seattle Center
Sat 01:10:42 AM 41.3706 -120.7169 343° North 473 544 38,000  Level Seattle Center
Sat 01:11:43 AM 41.4967 -120.7694 343° North 474 545 38,000  Level Seattle Center
Sat 01:12:44 AM 41.6239 -120.8189 344° North 477 549 38,000  Level Seattle Center
Sat 01:13:44 AM 41.7497 -120.8706 343° North 474 545 38,000  Level Seattle Center
Sat 01:14:45 AM 41.8761 -120.9208 344° North 476 548 38,000  Level Seattle Center
Sat 01:15:46 AM 42.0014 -120.9714 343° North 474 545 38,000  Level Seattle Center
Sat 01:16:47 AM 42.1258 -121.0231 343° North 474 545 38,000  Level Seattle Center
Sat 01:17:47 AM 42.2503 -121.0742 343° North 473 544 38,000  Level Seattle Center
Sat 01:18:48 AM 42.3747 -121.1217 344° North 471 542 38,000  Level Seattle Center
Sat 01:19:49 AM 42.4992 -121.1742 343° North 471 542 38,000  Level Seattle Center
Sat 01:20:49 AM 42.6250 -121.2261 343° North 474 545 38,000  Level Seattle Center
Sat 01:21:50 AM 42.7508 -121.2783 343° North 475 547 38,000  Level Seattle Center
Sat 01:22:51 AM 42.9022 -121.3447 342° North 478 550 38,000  Level Seattle Center
Sat 01:23:51 AM 43.0267 -121.3961 343° North 473 544 38,000  Level Seattle Center
Sat 01:24:52 AM 43.1500 -121.4431 344° North 465 535 38,000  Level Seattle Center
Sat 01:25:53 AM 43.2739 -121.4969 342° North 465 535 38,000  Level Seattle Center
Sat 01:26:53 AM 43.3986 -121.5503 343° North 468 539 38,000  Level Seattle Center
Sat 01:27:54 AM 43.5214 -121.6025 343° North 468 539 38,000  Level Seattle Center
Sat 01:28:55 AM 43.6450 -121.6553 343° North 467 537 38,000  Level Seattle Center
Sat 01:29:55 AM 43.7678 -121.7114 342° North 467 537 38,000  Level Seattle Center
Sat 01:30:56 AM 43.8822 -121.7569 344° North 466 536 38,000  Level Seattle Center
Sat 01:31:57 AM 44.0006 -121.8097 342° North 451 519 38,000  Level Seattle Center
Sat 01:32:57 AM 44.1178 -121.8594 343° North 446 513 38,000  Level Seattle Center
Sat 01:33:58 AM 44.2600 -121.9197 343° North 445 512 38,000  Level Seattle Center
Sat 01:34:59 AM 44.3797 -121.9728 342° North 445 512 38,000  Level Seattle Center
Sat 01:35:59 AM 44.4986 -122.0250 343° North 445 512 38,000  Level Seattle Center
Sat 01:37:00 AM 44.6175 -122.0772 343° North 445 512 38,000  Level Seattle Center
Sat 01:38:00 AM 44.7250 -122.1267 342° North 449 517 38,000  Level Seattle Center
Sat 01:39:01 AM 44.8419 -122.1794 342° North 448 516 38,000  Level Seattle Center
Sat 01:40:02 AM 44.9675 -122.2369 342° North 442 509 38,000  Level Seattle Center
Sat 01:41:02 AM 45.0858 -122.2894 343° North 444 511 38,000  Level Seattle Center
Sat 01:42:03 AM 45.2058 -122.3419 343° North 450 518 38,000  Level Seattle Center
Sat 01:43:03 AM 45.3242 -122.3961 342° North 450 518 38,000  Level Seattle Center
Sat 01:44:04 AM 45.4422 -122.4508 342° North 450 518 38,000 -744 Level Seattle Center
Sat 01:45:04 AM 45.5606 -122.5039 343° North 450 518 36,500 -2,182 Descending Seattle Center
Sat 01:46:05 AM 45.6767 -122.5572 342° North 446 513 33,600 -2,579 Descending Seattle Center
Sat 01:47:05 AM 45.7956 -122.6033 345° North 448 516 31,300 -2,231 Descending Seattle Center
Sat 01:48:06 AM 45.9122 -122.6306 351° North 433 498 29,100 -2,132 Descending Seattle Center
Sat 01:49:06 AM 46.0264 -122.6603 350° North 425 489 27,000 -2,083 Descending Seattle Center
Sat 01:50:07 AM 46.1364 -122.6836 352° North 409 471 24,900 -2,281 Descending Seattle Center
Sat 01:51:07 AM 46.2681 -122.7089 352° North 396 456 22,400 -2,231 Descending Seattle Center
Sat 01:52:08 AM 46.3744 -122.7250 354° North 392 451 20,400 -1,918 Descending Seattle Center
Sat 01:53:09 AM 46.4775 -122.7267 359° North 374 430 18,500 -1,738 Descending Seattle Center
Sat 01:53:55 AM 46.5522 -122.7339 356° North 367 422 17,300 -1,800 Descending Seattle Center
Sat 01:54:09 AM 46.5789 -122.7317 North 363 418 16,700 -2,055 Descending Seattle Center
Sat 01:55:08 AM 46.6756 -122.7389 357° North 355 409 14,800 -1,934 Descending Seattle Center
Sat 01:56:10 AM 46.7764 -122.7358 North 348 400 12,800 -1,689 Descending Seattle Center
Sat 01:56:51 AM 46.8267 -122.6967 28° Northeast 331 381 11,900 -1,574 Descending Seattle Center
Sat 01:57:11 AM 46.8506 -122.6586 47° Northeast 331 381 11,200 -1,417 Descending Seattle Center
Sat 01:58:03 AM 46.9072 -122.5853 41° Northeast 322 371 10,200 -1,115 Descending Seattle Center
Sat 01:59:04 AM 46.9614 -122.5008 47° Northeast 284 327 9,100 -1,190 Descending Seattle Center
Sat 01:59:59 AM 47.0192 -122.4403 36° Northeast 270 311 7,900 -1,324 Descending Seattle Center
Sat 02:00:12 AM 47.0331 -122.4250 37° Northeast 270 311 7,600 -1,200 Descending Seattle Center
Sat 02:00:59 AM 47.0833 -122.3858 28° Northeast 265 305 6,700 -1,180 Descending Seattle Center
Sat 02:01:13 AM 47.0978 -122.3711 35° Northeast 267 307 6,400 -896 Descending Seattle Center
Sat 02:02:06 AM 47.1506 -122.3361 24° Northeast 227 261 5,700 -1,050 Descending Seattle Center
Sat 02:03:13 AM 47.2139 -122.3144 13° North 208 239 4,300 -1,041 Descending Seattle Center
Sat 02:04:07 AM 47.2672 -122.3144 360° North 201 231 3,600 -936 Descending Seattle Center
Sat 02:05:02 AM 47.3153 -122.3108 North 187 215 2,600 -1,164 Descending Seattle Center
Sat 02:05:14 AM 47.3278 -122.3089 North 189 217 2,300 -1,000 Descending Seattle Center
Sat 02:06:08 AM 47.3681 -122.3081 North 173 199 1,500 -771 Descending Seattle Center
Sat 02:07:03 AM 47.4017 -122.3092 359° North 133 153 900 -627 Descending Seattle Center
Sat 02:07:15 AM 47.4111 -122.3086 North 141 162 800 -411 Descending Seattle Center
Sat 02:08:16 AM 47.4489 -122.3086 360° North 139 160 400 -393 Descending Seattle Center
Sat 02:10:00 AM 47.4499 -122.3118 295° West  Level Estimated

Login

Don't have an account? Register now (free) for customized features, flight alerts, and more!